createdAt,value
2019-01-31T00:01:37.872Z,2.27
2019-01-31T00:05:00.185Z,1.70
2019-01-31T00:08:21.719Z,2.10
2019-01-31T00:11:31.663Z,1.77
2019-01-31T00:14:42.305Z,2.40
2019-01-31T00:17:57.243Z,2.30
2019-01-31T00:21:26.153Z,2.08
2019-01-31T00:25:01.537Z,2.07
2019-01-31T00:28:29.692Z,2.20
2019-01-31T00:31:55.297Z,2.03
2019-01-31T00:34:53.929Z,1.90
2019-01-31T00:38:30.895Z,2.07
2019-01-31T00:41:53.339Z,2.30
2019-01-31T00:45:04.555Z,2.03
2019-01-31T00:48:36.917Z,2.20
2019-01-31T00:51:50.877Z,1.97
2019-01-31T00:55:29.822Z,2.43
2019-01-31T00:58:39.455Z,1.87
2019-01-31T01:01:46.919Z,2.00
2019-01-31T01:05:07.235Z,2.40
2019-01-31T01:08:18.342Z,2.43
2019-01-31T01:11:27.922Z,2.50
2019-01-31T01:14:43.694Z,2.00
2019-01-31T01:17:51.451Z,2.03
2019-01-31T01:21:03.349Z,2.25
2019-01-31T01:24:24.418Z,1.90
2019-01-31T01:27:18.872Z,1.98
2019-01-31T01:30:28.117Z,1.90
2019-01-31T01:37:15.450Z,1.63
2019-01-31T01:40:51.763Z,2.10
2019-01-31T01:44:03.269Z,2.10
2019-01-31T01:46:57.704Z,1.87
2019-01-31T01:49:47.049Z,2.10
2019-01-31T01:53:14.354Z,1.80
2019-01-31T01:56:43.176Z,2.10
2019-01-31T02:00:03.032Z,1.90
2019-01-31T02:03:39.373Z,1.80
2019-01-31T02:07:04.296Z,1.47
2019-01-31T02:10:47.968Z,1.67
2019-01-31T02:14:21.582Z,1.47
2019-01-31T02:17:17.804Z,1.43
2019-01-31T02:20:51.626Z,1.57
2019-01-31T02:24:08.804Z,1.32
2019-01-31T02:27:43.125Z,1.67
2019-01-31T02:30:38.461Z,1.67
2019-01-31T02:33:41.504Z,1.80
2019-01-31T02:36:56.197Z,1.57
2019-01-31T02:40:13.041Z,1.80
2019-01-31T02:44:12.102Z,1.70
2019-01-31T02:47:52.185Z,1.67
2019-01-31T02:51:40.736Z,1.70
2019-01-31T02:54:37.781Z,1.60
2019-01-31T02:58:00.194Z,1.33
2019-01-31T03:01:18.550Z,1.40
2019-01-31T03:04:30.565Z,1.40
2019-01-31T03:07:58.399Z,1.40
2019-01-31T03:11:24.535Z,1.27
2019-01-31T03:14:25.975Z,1.47
2019-01-31T03:17:52.752Z,1.40
2019-01-31T03:21:26.837Z,1.50
2019-01-31T03:24:26.447Z,1.07
2019-01-31T03:27:51.368Z,1.30
2019-01-31T03:31:13.850Z,1.30
2019-01-31T03:34:21.429Z,1.27
2019-01-31T03:37:40.910Z,1.13
2019-01-31T03:40:51.674Z,1.00
2019-01-31T03:43:55.332Z,1.12
2019-01-31T03:47:24.179Z,1.07
2019-01-31T03:50:22.120Z,1.10
2019-01-31T03:53:54.210Z,1.30
2019-01-31T03:57:09.084Z,1.35
2019-01-31T04:00:40.929Z,1.13
2019-01-31T04:03:35.826Z,1.30
2019-01-31T04:06:20.293Z,1.30
2019-01-31T04:08:52.271Z,1.57
2019-01-31T04:11:24.525Z,1.60
2019-01-31T04:13:56.357Z,1.60
2019-01-31T04:16:28.353Z,1.32
2019-01-31T04:19:00.529Z,2.00
2019-01-31T04:21:32.465Z,1.37
2019-01-31T04:24:04.624Z,1.30
2019-01-31T04:26:36.561Z,1.60
2019-01-31T04:29:08.464Z,1.50
2019-01-31T04:31:40.640Z,1.53
2019-01-31T04:34:12.542Z,1.83
2019-01-31T04:36:44.377Z,1.27
2019-01-31T04:39:16.278Z,1.57
2019-01-31T04:41:48.101Z,1.60
2019-01-31T04:44:20.334Z,1.57
2019-01-31T04:46:52.232Z,1.50
2019-01-31T04:49:24.143Z,1.60
2019-01-31T04:51:55.986Z,1.70
2019-01-31T04:54:27.898Z,1.27
2019-01-31T04:56:59.741Z,1.53
2019-01-31T04:59:31.655Z,1.60
2019-01-31T05:02:03.558Z,1.60
2019-01-31T05:04:35.659Z,1.60
2019-01-31T05:07:08.053Z,1.67
2019-01-31T05:09:39.905Z,1.50
2019-01-31T05:12:11.654Z,1.33
2019-01-31T05:14:43.820Z,2.07
2019-01-31T05:17:15.650Z,2.03
2019-01-31T05:19:47.932Z,1.60
2019-01-31T05:22:19.783Z,1.65
2019-01-31T05:24:51.617Z,2.03
2019-01-31T05:27:23.470Z,2.30
2019-01-31T05:29:55.309Z,2.40
2019-01-31T05:32:27.359Z,2.10
2019-01-31T05:34:59.364Z,2.30
2019-01-31T05:37:31.866Z,2.53
2019-01-31T05:40:03.774Z,1.93
2019-01-31T05:42:35.718Z,1.93
2019-01-31T05:45:11.048Z,1.60
2019-01-31T05:47:42.949Z,2.10
2019-01-31T05:50:17.245Z,1.97
2019-01-31T05:52:51.258Z,1.90
2019-01-31T05:55:23.215Z,2.30
2019-01-31T05:57:55.051Z,2.10
2019-01-31T06:00:29.719Z,1.95
2019-01-31T06:03:01.649Z,1.83
2019-01-31T06:05:33.636Z,2.10
2019-01-31T06:08:05.781Z,2.13
2019-01-31T06:10:37.744Z,2.07
2019-01-31T06:13:09.646Z,2.00
2019-01-31T06:15:41.495Z,2.13
2019-01-31T06:18:13.417Z,2.03
2019-01-31T06:20:45.334Z,1.87
2019-01-31T06:23:17.169Z,1.80
2019-01-31T06:25:49.082Z,1.87
2019-01-31T06:28:20.922Z,2.25
2019-01-31T06:30:52.762Z,1.82
2019-01-31T06:33:24.591Z,2.60
2019-01-31T06:35:56.369Z,3.10
2019-01-31T06:38:28.132Z,4.95
2019-01-31T06:41:00.066Z,2.23
2019-01-31T06:43:32.946Z,2.20
2019-01-31T06:46:04.868Z,2.15
2019-01-31T06:48:36.781Z,2.37
2019-01-31T06:51:08.921Z,2.27
2019-01-31T06:53:41.007Z,2.80
2019-01-31T06:56:12.938Z,3.80
2019-01-31T06:58:45.041Z,2.23
2019-01-31T07:01:16.955Z,2.20
2019-01-31T07:03:48.837Z,2.03
2019-01-31T07:06:20.601Z,3.25
2019-01-31T07:08:52.542Z,2.67
2019-01-31T07:11:30.124Z,1.73
2019-01-31T07:13:58.040Z,2.03
2019-01-31T07:16:29.918Z,2.00
2019-01-31T07:19:01.904Z,2.47
2019-01-31T07:21:33.939Z,2.50
2019-01-31T07:24:06.021Z,2.27
2019-01-31T07:26:38.018Z,2.43
2019-01-31T07:29:10.052Z,2.50
2019-01-31T07:31:42.052Z,2.20
2019-01-31T07:34:13.970Z,2.77
2019-01-31T07:36:46.196Z,2.73
2019-01-31T07:39:18.059Z,2.60
2019-01-31T07:41:49.975Z,2.23
2019-01-31T07:44:22.025Z,2.62
2019-01-31T07:46:54.109Z,2.27
2019-01-31T07:49:26.039Z,2.08
2019-01-31T07:51:58.747Z,2.00
2019-01-31T07:54:30.848Z,1.73
2019-01-31T07:57:02.853Z,2.10
2019-01-31T07:59:35.035Z,1.93
2019-01-31T08:02:07.034Z,1.90
2019-01-31T08:04:39.010Z,2.27
2019-01-31T08:07:11.648Z,1.90
2019-01-31T08:09:43.504Z,1.82
2019-01-31T08:12:15.341Z,2.13
2019-01-31T08:14:47.242Z,1.80
2019-01-31T08:17:19.991Z,2.10
2019-01-31T08:19:51.898Z,2.17
2019-01-31T08:22:23.890Z,2.20
2019-01-31T08:24:55.794Z,1.90
2019-01-31T08:27:27.711Z,2.07
2019-01-31T08:29:59.655Z,2.40
2019-01-31T08:32:31.599Z,2.13
2019-01-31T08:35:04.714Z,1.83
2019-01-31T08:37:36.616Z,2.00
2019-01-31T08:40:09.430Z,1.90
2019-01-31T08:42:41.782Z,2.20
2019-01-31T08:45:13.951Z,1.80
2019-01-31T08:47:45.912Z,1.53
2019-01-31T08:50:20.645Z,1.60
2019-01-31T08:52:52.634Z,2.13
2019-01-31T08:55:24.608Z,1.90
2019-01-31T08:57:56.802Z,2.63
2019-01-31T09:00:30.473Z,3.00
2019-01-31T09:03:02.463Z,2.93
2019-01-31T09:05:34.375Z,2.93
2019-01-31T09:08:06.525Z,3.63
2019-01-31T09:10:40.141Z,2.97
2019-01-31T09:13:13.209Z,3.10
2019-01-31T09:15:45.049Z,3.27
2019-01-31T09:18:16.893Z,3.08
2019-01-31T09:21:04.730Z,2.90
2019-01-31T09:24:20.306Z,2.40
2019-01-31T09:27:30.859Z,2.40
2019-01-31T09:30:53.136Z,2.73
2019-01-31T09:34:33.104Z,3.07
2019-01-31T09:38:07.849Z,2.80
2019-01-31T09:41:09.223Z,2.53
2019-01-31T09:44:26.884Z,2.57
2019-01-31T09:48:00.346Z,2.17
2019-01-31T09:50:52.378Z,2.13
2019-01-31T09:54:10.042Z,1.70
2019-01-31T09:57:38.941Z,2.10
2019-01-31T10:01:17.786Z,2.02
2019-01-31T10:04:16.772Z,1.87
2019-01-31T10:07:44.869Z,2.00
2019-01-31T10:11:05.010Z,2.05
2019-01-31T10:14:22.771Z,1.80
2019-01-31T10:17:48.954Z,1.80
2019-01-31T10:21:05.837Z,2.50
2019-01-31T10:24:10.012Z,2.03
2019-01-31T10:27:52.092Z,1.77
2019-01-31T10:31:13.489Z,1.77
2019-01-31T10:34:59.332Z,1.60
2019-01-31T10:38:30.254Z,1.80
2019-01-31T10:41:49.932Z,1.73
2019-01-31T10:45:00.415Z,1.87
2019-01-31T10:48:44.251Z,1.72
2019-01-31T10:51:52.596Z,1.75
2019-01-31T10:55:31.680Z,4.87
2019-01-31T10:58:55.374Z,1.63
2019-01-31T11:02:16.492Z,1.97
2019-01-31T11:05:38.414Z,1.73
2019-01-31T11:08:54.317Z,1.40
2019-01-31T11:11:42.866Z,2.35
2019-01-31T11:14:57.248Z,1.40
2019-01-31T11:18:02.343Z,1.57
2019-01-31T11:21:21.639Z,1.50
2019-01-31T11:24:54.935Z,0.77
2019-01-31T11:28:37.071Z,0.88
2019-01-31T11:31:40.118Z,1.43
2019-01-31T11:35:30.151Z,1.50
2019-01-31T11:38:54.446Z,1.57
2019-01-31T11:41:42.309Z,1.40
2019-01-31T11:45:37.876Z,1.03
2019-01-31T11:49:18.436Z,1.07
2019-01-31T11:52:52.928Z,1.20
2019-01-31T11:56:45.048Z,0.97
2019-01-31T11:59:17.065Z,1.20
2019-01-31T12:01:48.951Z,1.23
2019-01-31T12:04:20.922Z,0.70
2019-01-31T12:06:52.920Z,1.13
2019-01-31T12:09:24.933Z,1.10
2019-01-31T12:11:56.839Z,1.10
2019-01-31T12:14:28.846Z,1.00
2019-01-31T12:17:00.765Z,1.00
2019-01-31T12:19:32.668Z,0.87
2019-01-31T12:22:04.659Z,0.50
2019-01-31T12:24:36.906Z,1.30
2019-01-31T12:27:08.922Z,1.00
2019-01-31T12:29:40.904Z,1.27
2019-01-31T12:32:12.937Z,0.90
2019-01-31T12:34:44.932Z,1.20
2019-01-31T12:37:16.851Z,1.12
2019-01-31T12:39:48.753Z,1.23
2019-01-31T12:42:21.729Z,1.50
2019-01-31T12:44:53.638Z,0.90
2019-01-31T12:47:25.745Z,1.10
2019-01-31T12:49:57.902Z,1.10
2019-01-31T12:52:29.820Z,1.30
2019-01-31T12:55:01.767Z,1.33
2019-01-31T12:57:34.748Z,1.47
2019-01-31T13:00:14.377Z,1.40
2019-01-31T13:02:46.299Z,1.63
2019-01-31T13:05:18.322Z,1.40
2019-01-31T13:07:50.241Z,1.07
2019-01-31T13:10:22.485Z,1.50
2019-01-31T13:12:55.981Z,1.30
2019-01-31T13:15:29.489Z,1.33
2019-01-31T13:18:01.543Z,1.40
2019-01-31T13:20:33.784Z,1.70
2019-01-31T13:23:05.909Z,1.50
2019-01-31T13:25:37.806Z,1.60
2019-01-31T13:28:11.935Z,1.40
2019-01-31T13:30:43.860Z,1.30
2019-01-31T13:33:15.774Z,1.30
2019-01-31T13:35:47.670Z,1.17
2019-01-31T13:38:19.580Z,1.30
2019-01-31T13:40:51.481Z,1.23
2019-01-31T13:43:23.394Z,1.25
2019-01-31T13:45:55.574Z,1.30
2019-01-31T13:48:27.490Z,1.57
2019-01-31T13:50:59.484Z,1.20
2019-01-31T13:53:31.466Z,1.60
2019-01-31T13:56:05.462Z,1.50
2019-01-31T13:58:37.448Z,1.70
2019-01-31T14:01:09.824Z,1.50
2019-01-31T14:03:41.837Z,1.50
2019-01-31T14:06:14.002Z,1.67
2019-01-31T14:08:45.921Z,1.00
2019-01-31T14:11:17.855Z,1.50
2019-01-31T14:13:49.856Z,1.37
2019-01-31T14:16:21.756Z,1.40
2019-01-31T14:18:53.597Z,1.30
2019-01-31T14:21:25.522Z,1.37
2019-01-31T14:23:57.722Z,1.20
2019-01-31T14:26:29.643Z,1.23
2019-01-31T14:29:01.552Z,1.40
2019-01-31T14:31:33.371Z,1.30
2019-01-31T14:34:05.688Z,1.60
2019-01-31T14:36:37.586Z,1.50
2019-01-31T14:39:10.901Z,1.40
2019-01-31T14:41:42.727Z,1.20
2019-01-31T14:44:20.511Z,1.20
2019-01-31T14:46:48.491Z,1.45
2019-01-31T14:49:20.398Z,1.52
2019-01-31T14:51:52.642Z,1.43
2019-01-31T14:54:24.474Z,1.80
2019-01-31T14:56:56.381Z,2.00
2019-01-31T14:59:28.226Z,3.00
2019-01-31T15:02:00.065Z,1.70
2019-01-31T15:04:31.980Z,1.77
2019-01-31T15:07:03.954Z,1.33
2019-01-31T15:09:36.155Z,1.60
2019-01-31T15:12:08.136Z,1.40
2019-01-31T15:14:40.303Z,1.50
2019-01-31T15:17:12.195Z,1.67
2019-01-31T15:19:44.119Z,1.70
2019-01-31T15:22:15.950Z,1.37
2019-01-31T15:24:47.861Z,1.50
2019-01-31T15:27:19.760Z,2.40
2019-01-31T15:29:51.671Z,2.47
2019-01-31T15:32:24.021Z,2.73
2019-01-31T15:34:55.867Z,2.43
2019-01-31T15:37:27.791Z,2.83
2019-01-31T15:39:59.724Z,1.50
2019-01-31T15:42:31.618Z,1.50
2019-01-31T15:45:03.545Z,1.30
2019-01-31T15:47:35.711Z,1.57
2019-01-31T15:50:09.700Z,1.60
2019-01-31T15:52:41.625Z,1.43
2019-01-31T15:55:16.238Z,1.90
2019-01-31T15:57:48.150Z,2.00
2019-01-31T16:00:36.673Z,1.90
2019-01-31T16:03:11.137Z,1.90
2019-01-31T16:05:43.414Z,1.70
2019-01-31T16:08:15.690Z,1.97
2019-01-31T16:10:48.065Z,1.97
2019-01-31T16:13:20.273Z,1.87
2019-01-31T16:15:52.759Z,2.73
2019-01-31T16:18:24.809Z,2.80
2019-01-31T16:20:56.934Z,3.23
2019-01-31T16:23:28.957Z,2.17
2019-01-31T16:26:01.326Z,2.00
2019-01-31T16:28:33.333Z,2.10
2019-01-31T16:31:05.959Z,1.83
2019-01-31T16:33:38.046Z,1.73
2019-01-31T16:36:10.494Z,2.00
2019-01-31T16:38:44.041Z,2.00
2019-01-31T16:41:17.443Z,2.13
2019-01-31T16:43:49.623Z,1.67
2019-01-31T16:46:21.836Z,1.90
2019-01-31T16:48:53.828Z,2.00
2019-01-31T16:51:26.118Z,2.05
2019-01-31T16:53:58.595Z,2.03
2019-01-31T16:56:30.707Z,1.90
2019-01-31T16:59:03.132Z,1.85
2019-01-31T17:01:35.136Z,2.30
2019-01-31T17:04:07.922Z,2.60
2019-01-31T17:06:39.867Z,3.30
2019-01-31T17:09:31.213Z,2.87
2019-01-31T17:12:03.071Z,2.87
2019-01-31T17:14:35.332Z,3.37
2019-01-31T17:17:07.780Z,2.70
2019-01-31T17:19:39.856Z,2.70
2019-01-31T17:22:21.345Z,3.17
2019-01-31T17:25:00.652Z,2.93
2019-01-31T17:27:33.057Z,3.02
2019-01-31T17:30:08.075Z,2.60
2019-01-31T17:32:40.054Z,3.20
2019-01-31T17:35:12.226Z,3.30
2019-01-31T17:37:45.501Z,3.47
2019-01-31T17:40:24.714Z,2.83
2019-01-31T17:42:56.819Z,2.90
2019-01-31T17:45:31.036Z,3.00
2019-01-31T17:48:04.424Z,3.13
2019-01-31T17:50:38.389Z,3.40
2019-01-31T17:53:10.856Z,3.47
2019-01-31T17:55:43.254Z,4.03
2019-01-31T17:58:17.141Z,4.13
2019-01-31T18:00:52.404Z,4.70
2019-01-31T18:03:24.800Z,3.92
2019-01-31T18:05:57.777Z,4.10
2019-01-31T18:08:31.760Z,10.53
2019-01-31T18:11:04.068Z,5.13
2019-01-31T18:13:38.805Z,3.73
2019-01-31T18:16:12.739Z,3.60
2019-01-31T18:18:47.289Z,4.10
2019-01-31T18:21:20.404Z,3.77
2019-01-31T18:23:53.738Z,3.37
2019-01-31T18:26:27.787Z,6.10
2019-01-31T18:29:01.883Z,5.40
2019-01-31T18:31:36.240Z,4.43
2019-01-31T18:34:09.324Z,3.80
2019-01-31T18:36:41.557Z,3.37
2019-01-31T18:39:15.181Z,3.57
2019-01-31T18:41:50.250Z,3.53
2019-01-31T18:44:25.238Z,3.17
2019-01-31T18:47:01.887Z,3.90
2019-01-31T18:49:37.208Z,4.20
2019-01-31T18:52:12.137Z,3.70
2019-01-31T18:54:47.474Z,3.15
2019-01-31T18:57:22.965Z,3.40
2019-01-31T18:59:58.439Z,3.53
2019-01-31T19:02:33.507Z,3.83
2019-01-31T19:05:08.735Z,3.70
2019-01-31T19:07:44.456Z,17.63
2019-01-31T19:10:19.543Z,5.37
2019-01-31T19:12:55.068Z,4.75
2019-01-31T19:15:29.014Z,4.17
2019-01-31T19:18:06.055Z,3.80
2019-01-31T19:20:40.573Z,3.60
2019-01-31T19:23:18.461Z,3.30
2019-01-31T19:25:53.470Z,3.53
2019-01-31T19:28:28.801Z,3.27
2019-01-31T19:31:04.370Z,3.47
2019-01-31T19:33:40.235Z,3.43
2019-01-31T19:36:16.394Z,3.00
2019-01-31T19:38:53.356Z,3.77
2019-01-31T19:41:30.324Z,4.20
2019-01-31T19:44:05.626Z,3.77
2019-01-31T19:46:42.271Z,3.40
2019-01-31T19:49:17.979Z,3.40
2019-01-31T19:51:53.936Z,3.33
2019-01-31T19:54:30.193Z,3.40
2019-01-31T19:57:06.105Z,3.10
2019-01-31T19:59:43.385Z,3.30
2019-01-31T20:02:20.437Z,3.00
2019-01-31T20:04:56.190Z,3.50
2019-01-31T20:07:32.948Z,3.47
2019-01-31T20:10:11.010Z,4.03
2019-01-31T20:12:48.744Z,3.67
2019-01-31T20:15:24.955Z,3.67
2019-01-31T20:18:00.190Z,3.57
2019-01-31T20:20:37.049Z,3.60
2019-01-31T20:23:13.580Z,3.40
2019-01-31T20:25:49.891Z,3.93
2019-01-31T20:28:26.477Z,4.03
2019-01-31T20:31:02.433Z,3.17
2019-01-31T20:33:38.061Z,3.50
2019-01-31T20:36:17.571Z,2.80
2019-01-31T20:38:53.709Z,3.27
2019-01-31T20:41:30.309Z,3.80
2019-01-31T20:44:06.118Z,3.10
2019-01-31T20:46:43.918Z,3.70
2019-01-31T20:49:19.855Z,3.47
2019-01-31T20:51:55.713Z,3.70
2019-01-31T20:54:33.116Z,3.50
2019-01-31T20:57:11.170Z,3.73
2019-01-31T20:59:47.802Z,3.20
2019-01-31T21:02:24.542Z,3.23
2019-01-31T21:05:00.972Z,3.33
2019-01-31T21:07:37.676Z,3.00
2019-01-31T21:10:15.154Z,3.10
2019-01-31T21:12:51.432Z,3.00
2019-01-31T21:15:27.399Z,3.02
2019-01-31T21:18:02.573Z,2.80
2019-01-31T21:20:39.351Z,3.03
2019-01-31T21:23:14.882Z,2.92
2019-01-31T21:25:49.816Z,2.93
2019-01-31T21:28:25.132Z,2.65
2019-01-31T21:31:00.079Z,3.07
2019-01-31T21:33:34.315Z,3.03
2019-01-31T21:36:08.342Z,3.20
2019-01-31T21:38:41.810Z,2.80
2019-01-31T21:41:14.939Z,3.13
2019-01-31T21:43:48.240Z,3.10
2019-01-31T21:46:20.942Z,2.95
2019-01-31T21:48:53.141Z,3.03
2019-01-31T21:51:25.795Z,2.98
2019-01-31T21:53:58.320Z,2.90
2019-01-31T21:56:32.568Z,3.17
2019-01-31T21:59:04.712Z,2.80
2019-01-31T22:01:36.911Z,2.50
2019-01-31T22:04:08.918Z,2.97
2019-01-31T22:06:40.952Z,3.20
2019-01-31T22:09:13.178Z,2.80
2019-01-31T22:11:45.654Z,2.77
2019-01-31T22:14:17.725Z,3.03
2019-01-31T22:16:49.881Z,3.02
2019-01-31T22:19:22.009Z,2.87
2019-01-31T22:21:54.053Z,2.57
2019-01-31T22:24:25.974Z,2.50
2019-01-31T22:26:58.200Z,2.60
2019-01-31T22:29:30.273Z,2.37
2019-01-31T22:32:02.585Z,3.10
2019-01-31T22:34:34.565Z,2.77
2019-01-31T22:37:06.578Z,2.60
2019-01-31T22:39:38.498Z,2.93
2019-01-31T22:42:11.586Z,2.63
2019-01-31T22:44:43.615Z,2.50
2019-01-31T22:47:25.469Z,3.10
2019-01-31T22:49:49.067Z,2.80
2019-01-31T22:52:20.976Z,2.60
2019-01-31T22:54:52.915Z,2.90
2019-01-31T22:57:24.844Z,2.97
2019-01-31T22:59:56.763Z,3.00
2019-01-31T23:02:28.692Z,2.42
2019-01-31T23:05:00.665Z,2.90
2019-01-31T23:07:32.585Z,3.43
2019-01-31T23:10:05.596Z,2.57
2019-01-31T23:12:37.512Z,3.30
2019-01-31T23:15:09.772Z,2.67
2019-01-31T23:17:41.949Z,2.67
2019-01-31T23:20:15.959Z,2.77
2019-01-31T23:22:47.868Z,2.97
2019-01-31T23:25:19.878Z,2.80
2019-01-31T23:27:51.789Z,2.90
2019-01-31T23:30:23.723Z,3.05
2019-01-31T23:32:55.652Z,2.93
2019-01-31T23:35:27.578Z,2.47
2019-01-31T23:37:59.843Z,2.27
2019-01-31T23:40:31.822Z,2.73
2019-01-31T23:43:03.907Z,2.90
2019-01-31T23:45:35.892Z,3.47
2019-01-31T23:48:08.132Z,3.08
2019-01-31T23:50:40.067Z,2.83
2019-01-31T23:53:12.324Z,3.03
2019-01-31T23:55:44.196Z,3.33
2019-01-31T23:58:16.104Z,3.55
